Time;durP1;ratioP1;P1;durP2;ratioP2;P2;SDS_P1;SDS_P2;PMS_P1;PMS_P2;Temp;Humidity;BMP_temperature;BMP_pressure;BME280_temperature;BME280_humidity;BME280_pressure;Samples;Min_cycle;Max_cycle;Signal;HPM_P1;HPM_P2
2022/04/15 00:01:41;;;;;;;11.35;5.03;;;16.30;51.60;;;;;;5114804;28;20099;-72
2022/04/15 00:04:07;;;;;;;7.32;4.85;;;16.30;52.00;;;;;;5096194;28;20054;-72
2022/04/15 00:06:33;;;;;;;6.07;4.80;;;16.30;52.10;;;;;;5096165;28;20122;-72
2022/04/15 00:08:59;;;;;;;5.80;4.57;;;16.30;52.10;;;;;;5114384;28;20507;-72
2022/04/15 00:11:25;;;;;;;7.18;5.10;;;16.20;52.00;;;;;;5114356;28;20031;-72
2022/04/15 00:13:51;;;;;;;8.23;5.63;;;16.20;52.40;;;;;;5096020;28;20459;-72
2022/04/15 00:16:17;;;;;;;6.72;4.93;;;16.20;52.80;;;;;;5114295;28;20045;-72
2022/04/15 00:18:43;;;;;;;7.32;5.22;;;16.30;53.10;;;;;;5095918;28;20487;-73
2022/04/15 00:21:10;;;;;;;6.72;5.13;;;16.30;53.20;;;;;;5095702;28;20024;-72
2022/04/15 00:23:36;;;;;;;7.97;4.80;;;16.30;53.20;;;;;;5113874;28;20020;-72
2022/04/15 00:26:03;;;;;;;6.70;4.90;;;16.40;53.20;;;;;;5095885;28;20051;-72
2022/04/15 00:28:29;;;;;;;6.18;4.03;;;16.40;53.10;;;;;;5113831;28;20456;-72
2022/04/15 00:30:55;;;;;;;7.57;4.65;;;16.50;53.00;;;;;;5095772;28;20024;-72
2022/04/15 00:33:24;;;;;;;7.28;4.60;;;16.60;52.90;;;;;;5095753;28;20028;-72
2022/04/15 00:35:50;;;;;;;11.75;4.85;;;16.60;52.80;;;;;;5113756;28;20464;-72
2022/04/15 00:38:16;;;;;;;7.13;4.70;;;16.70;52.80;;;;;;5095513;28;20498;-72
2022/04/15 00:40:42;;;;;;;7.97;4.07;;;16.80;52.90;;;;;;5095503;28;20087;-73
2022/04/15 00:43:08;;;;;;;7.13;4.45;;;16.80;53.40;;;;;;5113971;28;20058;-72
2022/04/15 00:45:34;;;;;;;7.90;5.38;;;16.80;52.70;;;;;;5095661;28;20028;-72
2022/04/15 00:48:01;;;;;;;7.43;4.57;;;16.90;52.70;;;;;;5113927;28;20036;-72
2022/04/15 00:50:29;;;;;;;12.52;4.80;;;16.90;52.40;;;;;;5113850;28;20027;-71
2022/04/15 00:53:01;;;;;;;5.93;4.05;;;17.00;52.30;;;;;;5095589;28;20020;-71
2022/04/15 00:55:27;;;;;;;9.70;4.40;;;17.00;52.20;;;;;;5095585;28;20027;-72
2022/04/15 00:57:56;;;;;;;5.60;4.18;;;17.00;51.90;;;;;;5125397;28;20092;-72
2022/04/15 01:00:25;;;;;;;6.07;4.20;;;17.00;52.00;;;;;;5115849;28;20027;-72
2022/04/15 01:02:52;;;;;;;6.45;3.90;;;17.00;51.80;;;;;;5115658;28;20019;-72
2022/04/15 01:05:19;;;;;;;7.50;5.15;;;17.00;51.80;;;;;;5115685;28;20125;-73
2022/04/15 01:07:52;;;;;;;7.93;4.63;;;17.00;51.90;;;;;;5115648;28;20030;-72
2022/04/15 01:10:20;;;;;;;5.05;4.22;;;16.90;51.80;;;;;;5115702;28;20077;-73
2022/04/15 01:12:48;;;;;;;8.27;5.40;;;16.90;51.80;;;;;;5115518;28;20027;-71
2022/04/15 01:15:15;;;;;;;6.13;4.57;;;16.90;51.70;;;;;;5133867;28;20033;-71
2022/04/15 01:17:41;;;;;;;6.97;4.97;;;16.90;51.80;;;;;;5115421;28;20035;-71
2022/04/15 01:20:10;;;;;;;9.18;5.10;;;16.80;51.90;;;;;;5115469;28;20023;-72
2022/04/15 01:22:44;;;;;;;6.85;4.53;;;16.80;52.00;;;;;;5133612;28;20019;-72
2022/04/15 01:25:13;;;;;;;6.80;4.93;;;16.80;51.90;;;;;;5133959;28;20023;-73
2022/04/15 01:27:47;;;;;;;8.65;5.25;;;16.70;51.80;;;;;;5133566;28;20030;-72
2022/04/15 01:30:19;;;;;;;11.07;4.68;;;16.70;52.10;;;;;;5133911;28;20100;-73
2022/04/15 01:32:45;;;;;;;7.38;4.82;;;16.60;52.10;;;;;;5134831;27;20035;-73
2022/04/15 01:35:13;;;;;;;7.95;5.30;;;16.60;52.10;;;;;;5137610;27;20019;-73
2022/04/15 01:37:39;;;;;;;6.93;5.07;;;16.60;52.40;;;;;;5137605;27;20370;-72
2022/04/15 01:40:08;;;;;;;9.10;4.78;;;16.60;52.80;;;;;;5118949;27;20055;-74
2022/04/15 01:42:36;;;;;;;6.60;5.13;;;16.60;52.80;;;;;;5137510;27;20027;-72
2022/04/15 01:45:02;;;;;;;10.85;5.55;;;16.60;52.70;;;;;;5119221;27;20068;-72
2022/04/15 01:47:28;;;;;;;5.93;4.45;;;16.60;52.90;;;;;;5119120;27;20035;-72
2022/04/15 01:49:54;;;;;;;7.22;5.25;;;16.50;52.70;;;;;;5119056;27;20356;-72
2022/04/15 01:52:20;;;;;;;8.40;5.72;;;16.50;53.10;;;;;;5137528;27;20031;-73
2022/04/15 01:54:47;;;;;;;8.27;5.85;;;16.40;53.40;;;;;;5119050;27;20032;-72
2022/04/15 01:57:14;;;;;;;13.45;6.18;;;16.40;53.70;;;;;;5136938;27;20035;-73
2022/04/15 01:59:40;;;;;;;8.00;5.30;;;16.40;53.70;;;;;;5118764;27;20078;-70
2022/04/15 02:02:06;;;;;;;7.28;5.78;;;16.40;53.80;;;;;;5118865;27;20378;-71
2022/04/15 02:04:33;;;;;;;8.30;5.78;;;16.40;53.70;;;;;;5137136;27;20110;-71
2022/04/15 02:06:59;;;;;;;10.10;6.55;;;16.40;53.70;;;;;;5137395;27;20038;-71
2022/04/15 02:09:25;;;;;;;10.38;6.60;;;16.40;54.10;;;;;;5118245;27;20030;-71
2022/04/15 02:11:51;;;;;;;8.15;6.47;;;16.50;53.90;;;;;;5118615;27;20019;-71
2022/04/15 02:14:18;;;;;;;11.18;5.75;;;16.50;53.90;;;;;;5118577;27;20114;-70
2022/04/15 02:16:45;;;;;;;8.10;5.50;;;16.60;54.00;;;;;;5136450;27;20033;-71
2022/04/15 02:19:11;;;;;;;12.27;6.05;;;16.60;53.80;;;;;;5118182;27;20092;-71
2022/04/15 02:21:37;;;;;;;8.18;6.28;;;16.70;53.80;;;;;;5136603;27;20059;-70
2022/04/15 02:24:04;;;;;;;8.00;6.25;;;16.70;53.80;;;;;;5136806;27;20035;-70
2022/04/15 02:26:29;;;;;;;11.20;7.03;;;16.80;53.80;;;;;;5136650;27;20023;-70
2022/04/15 02:28:55;;;;;;;14.88;7.75;;;16.70;53.80;;;;;;5118267;27;20023;-70
2022/04/15 02:31:21;;;;;;;15.20;8.48;;;16.70;53.80;;;;;;5136736;27;20026;-70
2022/04/15 02:33:47;;;;;;;11.95;7.68;;;16.70;53.90;;;;;;5136557;27;20069;-71
2022/04/15 02:36:13;;;;;;;11.23;8.20;;;16.70;53.80;;;;;;5136823;27;20030;-70
2022/04/15 02:38:39;;;;;;;10.82;7.50;;;16.70;53.60;;;;;;5136377;27;20103;-70
2022/04/15 02:41:06;;;;;;;9.48;6.57;;;16.70;53.40;;;;;;5117482;27;20084;-70
2022/04/15 02:43:33;;;;;;;8.35;5.97;;;16.80;53.30;;;;;;5117873;27;20034;-70
2022/04/15 02:46:00;;;;;;;10.20;6.93;;;16.70;53.20;;;;;;5117959;27;20027;-71
2022/04/15 02:48:26;;;;;;;21.70;8.52;;;16.80;53.30;;;;;;5117738;27;20050;-70
2022/04/15 02:50:53;;;;;;;16.85;10.38;;;16.80;53.40;;;;;;5136298;27;20031;-70
2022/04/15 02:53:19;;;;;;;11.30;8.05;;;16.80;53.10;;;;;;5117497;27;20026;-71
2022/04/15 02:55:45;;;;;;;11.05;7.40;;;16.90;53.50;;;;;;5117584;27;20382;-70
2022/04/15 02:58:11;;;;;;;13.82;9.02;;;17.00;53.30;;;;;;5117669;27;20031;-71
2022/04/15 03:00:37;;;;;;;14.57;9.63;;;17.00;53.10;;;;;;5117649;27;20080;-70
2022/04/15 03:03:03;;;;;;;15.23;9.27;;;17.00;53.10;;;;;;5117592;27;20447;-70
2022/04/15 03:05:30;;;;;;;10.88;8.25;;;17.10;53.10;;;;;;5136053;27;20096;-70
2022/04/15 03:07:56;;;;;;;10.02;8.23;;;17.20;53.20;;;;;;5117495;27;20023;-70
2022/04/15 03:10:22;;;;;;;11.82;8.30;;;17.30;53.60;;;;;;5117432;27;20027;-70
2022/04/15 03:12:48;;;;;;;11.77;8.80;;;17.40;54.10;;;;;;5135477;27;20026;-71
2022/04/15 03:15:14;;;;;;;23.63;9.75;;;17.50;54.30;;;;;;5135771;27;20023;-72
2022/04/15 03:17:40;;;;;;;21.05;8.63;;;17.50;54.70;;;;;;5117187;27;20027;-71
2022/04/15 03:20:07;;;;;;;16.17;9.75;;;17.60;54.50;;;;;;5117238;27;20027;-70
2022/04/15 03:22:41;;;;;;;14.23;9.55;;;17.60;54.80;;;;;;5135643;27;20323;-71
2022/04/15 03:25:10;;;;;;;13.45;7.93;;;17.50;54.90;;;;;;5117192;27;20023;-70
2022/04/15 03:27:36;;;;;;;12.35;7.80;;;17.60;54.90;;;;;;5117055;27;20035;-70
2022/04/15 03:30:04;;;;;;;13.30;8.63;;;17.50;55.00;;;;;;5135354;27;20027;-70
2022/04/15 03:32:30;;;;;;;16.15;9.77;;;17.50;55.30;;;;;;5117071;27;20026;-70
2022/04/15 03:34:57;;;;;;;14.93;9.82;;;17.50;55.60;;;;;;5116941;27;20447;-70
2022/04/15 03:37:23;;;;;;;17.50;8.73;;;17.50;55.90;;;;;;5135070;27;20463;-70
2022/04/15 03:39:49;;;;;;;13.48;8.32;;;17.50;56.00;;;;;;5134772;27;20051;-71
2022/04/15 03:42:15;;;;;;;15.95;9.07;;;17.50;56.20;;;;;;5135586;27;20027;-71
2022/04/15 03:44:41;;;;;;;17.33;9.57;;;17.50;56.50;;;;;;5116745;27;20428;-71
2022/04/15 03:47:07;;;;;;;17.33;10.85;;;17.40;56.90;;;;;;5116565;27;20079;-70
2022/04/15 03:49:34;;;;;;;13.45;8.98;;;17.40;57.30;;;;;;5116632;27;20023;-70
2022/04/15 03:52:00;;;;;;;17.90;9.40;;;17.40;57.60;;;;;;5116875;27;20412;-70
2022/04/15 03:54:26;;;;;;;14.52;9.02;;;17.40;57.50;;;;;;5116202;27;20035;-71
2022/04/15 03:56:52;;;;;;;12.20;8.23;;;17.40;57.50;;;;;;5134282;27;20088;-70
2022/04/15 03:59:18;;;;;;;13.35;8.98;;;17.40;57.50;;;;;;5116495;27;20379;-71
2022/04/15 04:01:44;;;;;;;14.73;8.60;;;17.30;57.60;;;;;;5134466;27;20381;-71
2022/04/15 04:04:10;;;;;;;13.95;10.13;;;17.30;57.80;;;;;;5116388;27;20082;-70
2022/04/15 04:06:36;;;;;;;23.63;11.95;;;17.40;58.30;;;;;;5115941;27;20023;-70
2022/04/15 04:09:02;;;;;;;29.60;13.38;;;17.30;58.40;;;;;;5116282;27;20035;-71
2022/04/15 04:11:28;;;;;;;16.83;12.18;;;17.20;58.90;;;;;;5116211;27;20113;-71
2022/04/15 04:13:54;;;;;;;32.13;14.60;;;17.10;59.40;;;;;;5134660;27;20148;-71
2022/04/15 04:16:19;;;;;;;16.75;11.68;;;17.00;60.10;;;;;;5115938;27;20114;-70
2022/04/15 04:18:46;;;;;;;15.00;11.18;;;16.90;61.40;;;;;;5115826;27;20063;-72
2022/04/15 04:21:12;;;;;;;15.57;11.07;;;16.80;61.90;;;;;;5116178;27;20034;-70
2022/04/15 04:23:39;;;;;;;16.83;12.80;;;16.80;62.40;;;;;;5116217;27;20030;-70
2022/04/15 04:26:05;;;;;;;15.18;10.98;;;16.70;62.70;;;;;;5115892;27;20023;-71
2022/04/15 04:28:32;;;;;;;12.75;9.77;;;16.60;62.90;;;;;;5134536;27;20408;-70
2022/04/15 04:30:58;;;;;;;18.33;11.52;;;16.60;63.00;;;;;;5116056;27;20122;-71
2022/04/15 04:33:23;;;;;;;17.45;11.98;;;16.50;63.60;;;;;;5134122;27;20513;-71
2022/04/15 04:35:49;;;;;;;21.98;12.13;;;16.50;63.90;;;;;;5115906;27;20030;-73
2022/04/15 04:38:16;;;;;;;20.85;11.85;;;16.50;64.30;;;;;;5134287;27;20030;-72
2022/04/15 04:40:42;;;;;;;18.33;12.43;;;16.40;64.60;;;;;;5115486;27;20047;-72
2022/04/15 04:43:09;;;;;;;15.65;12.32;;;16.40;64.90;;;;;;5134125;27;20412;-73
2022/04/15 04:45:36;;;;;;;23.67;12.95;;;16.40;64.70;;;;;;5134588;28;20023;-73
2022/04/15 04:48:04;;;;;;;22.35;13.38;;;16.30;65.10;;;;;;5133987;28;20527;-72
2022/04/15 04:50:31;;;;;;;23.02;13.77;;;16.20;65.30;;;;;;5115920;28;20023;-73
2022/04/15 04:52:58;;;;;;;19.83;12.88;;;16.20;65.50;;;;;;5115471;28;20047;-75
2022/04/15 04:55:24;;;;;;;22.10;14.32;;;16.20;65.60;;;;;;5115732;28;20463;-77
2022/04/15 04:57:50;;;;;;;20.00;13.48;;;16.20;65.90;;;;;;5115666;28;20463;-77
2022/04/15 05:00:17;;;;;;;21.15;14.40;;;16.10;66.10;;;;;;5133750;28;20118;-76
2022/04/15 05:02:43;;;;;;;25.98;15.20;;;16.10;66.20;;;;;;5115655;28;20030;-74
2022/04/15 05:05:10;;;;;;;23.58;14.05;;;16.10;66.30;;;;;;5133939;28;20019;-74
2022/04/15 05:07:36;;;;;;;22.40;12.45;;;16.10;66.40;;;;;;5116392;27;20023;-74
2022/04/15 05:10:05;;;;;;;17.95;13.02;;;16.10;66.50;;;;;;5137910;27;20034;-74
2022/04/15 05:12:32;;;;;;;22.48;13.98;;;16.10;66.50;;;;;;5119765;27;20024;-74
2022/04/15 05:14:58;;;;;;;15.88;11.90;;;16.10;66.40;;;;;;5119453;27;20031;-77
2022/04/15 05:17:23;;;;;;;18.77;14.30;;;16.10;66.30;;;;;;5119405;27;20031;-76
2022/04/15 05:19:49;;;;;;;26.73;13.95;;;16.20;66.40;;;;;;5137700;27;20030;-77
2022/04/15 05:22:15;;;;;;;19.13;13.90;;;16.20;66.30;;;;;;5119573;27;20352;-77
2022/04/15 05:24:41;;;;;;;19.13;13.75;;;16.20;66.30;;;;;;5119517;27;20023;-77
2022/04/15 05:27:07;;;;;;;19.17;14.02;;;16.20;66.30;;;;;;5119456;27;20019;-76
2022/04/15 05:29:33;;;;;;;14.82;11.40;;;16.20;66.40;;;;;;5119217;27;20027;-77
2022/04/15 05:31:59;;;;;;;24.58;15.02;;;16.20;66.30;;;;;;5119441;27;20462;-76
2022/04/15 05:34:25;;;;;;;20.88;14.43;;;16.20;66.50;;;;;;5119394;27;20049;-77
2022/04/15 05:36:51;;;;;;;16.70;13.60;;;16.20;66.40;;;;;;5119111;27;20027;-76
2022/04/15 05:39:17;;;;;;;18.45;13.23;;;16.20;66.50;;;;;;5137609;27;20023;-74
2022/04/15 05:41:43;;;;;;;18.83;14.02;;;16.20;66.60;;;;;;5119261;27;20493;-74
2022/04/15 05:44:12;;;;;;;16.85;11.98;;;16.30;66.40;;;;;;5119011;27;20540;-77
2022/04/15 05:46:39;;;;;;;18.67;12.93;;;16.30;66.40;;;;;;5137525;27;20030;-74
2022/04/15 05:49:06;;;;;;;23.88;15.13;;;16.30;66.40;;;;;;5137428;27;20023;-74
2022/04/15 05:51:32;;;;;;;22.73;15.20;;;16.30;66.60;;;;;;5137312;27;20041;-74
2022/04/15 05:53:58;;;;;;;24.63;15.15;;;16.30;66.40;;;;;;5137412;27;20094;-74
2022/04/15 05:56:24;;;;;;;20.40;15.45;;;16.30;66.30;;;;;;5137290;27;20031;-74
2022/04/15 05:58:50;;;;;;;25.88;15.55;;;16.40;66.30;;;;;;5136783;27;20027;-74
2022/04/15 06:01:17;;;;;;;25.02;16.27;;;16.30;66.30;;;;;;5137266;27;20515;-76
2022/04/15 06:03:43;;;;;;;20.52;15.38;;;16.40;66.30;;;;;;5119021;27;20373;-77
2022/04/15 06:06:08;;;;;;;22.83;17.08;;;16.30;66.30;;;;;;5118850;27;20129;-76
2022/04/15 06:08:34;;;;;;;21.80;17.10;;;16.30;66.30;;;;;;5137193;27;20059;-74
2022/04/15 06:11:00;;;;;;;23.83;16.88;;;16.30;67.20;;;;;;5118739;27;20027;-75
2022/04/15 06:13:26;;;;;;;27.45;16.88;;;16.30;66.40;;;;;;5137068;27;20027;-74
2022/04/15 06:15:53;;;;;;;21.70;16.88;;;16.30;67.10;;;;;;5136759;27;20042;-74
2022/04/15 06:18:20;;;;;;;24.10;17.40;;;16.30;66.40;;;;;;5117966;27;20039;-75
2022/04/15 06:20:47;;;;;;;26.90;18.15;;;16.30;66.40;;;;;;5118627;27;20465;-76
2022/04/15 06:23:14;;;;;;;24.13;17.27;;;16.30;66.40;;;;;;5137160;27;20019;-74
2022/04/15 06:25:41;;;;;;;26.15;17.95;;;16.30;66.40;;;;;;5136639;27;20374;-75
2022/04/15 06:28:07;;;;;;;32.38;18.20;;;16.30;66.50;;;;;;5118209;27;20035;-75
2022/04/15 06:30:33;;;;;;;24.30;16.55;;;16.30;66.60;;;;;;5118183;27;20027;-77
2022/04/15 06:32:59;;;;;;;23.95;17.63;;;16.30;66.60;;;;;;5118174;27;20023;-74
2022/04/15 06:35:24;;;;;;;25.95;16.75;;;16.30;66.80;;;;;;5136679;27;20023;-74
2022/04/15 06:37:51;;;;;;;24.30;17.70;;;16.40;66.90;;;;;;5117787;27;20039;-75
2022/04/15 06:40:17;;;;;;;21.40;15.73;;;16.40;67.00;;;;;;5117742;27;20085;-75
2022/04/15 06:42:43;;;;;;;23.60;16.67;;;16.50;67.10;;;;;;5136178;27;20099;-75
2022/04/15 06:45:13;;;;;;;22.65;16.48;;;16.50;66.90;;;;;;5136230;27;20115;-75
2022/04/15 06:47:39;;;;;;;22.33;16.77;;;16.60;66.90;;;;;;5118003;27;20031;-76
2022/04/15 06:50:06;;;;;;;21.35;16.83;;;16.60;66.80;;;;;;5117843;27;20046;-75
2022/04/15 06:52:32;;;;;;;35.63;19.25;;;16.70;66.90;;;;;;5135956;27;20211;-75
2022/04/15 06:54:58;;;;;;;37.60;19.92;;;16.70;66.70;;;;;;5136399;27;20408;-74
2022/04/15 06:57:24;;;;;;;25.80;17.27;;;16.80;66.70;;;;;;5136473;27;20039;-75
2022/04/15 06:59:49;;;;;;;26.50;18.90;;;16.80;66.80;;;;;;5136252;27;20020;-74
2022/04/15 07:02:15;;;;;;;33.55;18.60;;;16.90;67.10;;;;;;5117862;27;20046;-75
2022/04/15 07:04:42;;;;;;;50.33;22.33;;;17.00;67.60;;;;;;5136970;27;20454;-75
2022/04/15 07:07:07;;;;;;;36.83;19.10;;;17.10;67.80;;;;;;5117241;27;20458;-75
2022/04/15 07:09:34;;;;;;;40.50;20.00;;;17.20;67.40;;;;;;5135710;27;20027;-75
2022/04/15 07:11:59;;;;;;;38.20;20.77;;;17.30;67.20;;;;;;5117462;27;20402;-75
2022/04/15 07:14:26;;;;;;;24.88;18.45;;;17.50;67.40;;;;;;5135533;27;20019;-75
2022/04/15 07:16:51;;;;;;;32.15;17.85;;;17.70;67.20;;;;;;5135463;27;20028;-75
2022/04/15 07:19:17;;;;;;;25.55;17.52;;;17.80;67.20;;;;;;5135790;27;20042;-75
2022/04/15 07:21:43;;;;;;;31.80;17.45;;;18.00;67.30;;;;;;5117244;27;20459;-75
2022/04/15 07:24:10;;;;;;;28.17;18.90;;;18.10;66.80;;;;;;5135376;27;20030;-75
2022/04/15 07:26:35;;;;;;;27.20;16.52;;;18.20;65.80;;;;;;5135303;27;20402;-76
2022/04/15 07:29:02;;;;;;;41.70;20.23;;;18.30;65.20;;;;;;5117159;27;20027;-75
2022/04/15 07:31:27;;;;;;;36.45;19.23;;;18.40;65.30;;;;;;5116283;27;20027;-75
2022/04/15 07:33:53;;;;;;;32.33;19.42;;;18.50;64.70;;;;;;5135777;27;20089;-75
2022/04/15 07:39:17;;;;;;;29.38;19.17;;;18.60;64.20;;;;;;5051115;28;20086;-76
2022/04/15 07:41:45;;;;;;;29.02;19.60;;;18.80;63.80;;;;;;5051643;28;20107;-76
2022/04/15 07:44:11;;;;;;;32.45;18.35;;;18.80;63.30;;;;;;5034982;28;20029;-76
2022/04/15 07:46:38;;;;;;;26.10;17.52;;;18.90;62.50;;;;;;5051689;28;20104;-76
2022/04/15 07:49:05;;;;;;;27.02;18.77;;;18.90;62.20;;;;;;5051582;28;20485;-75
2022/04/15 07:51:31;;;;;;;30.08;17.83;;;19.00;61.80;;;;;;5051607;28;20029;-75
2022/04/15 07:53:57;;;;;;;27.02;16.90;;;18.90;61.30;;;;;;5034745;28;20074;-75
2022/04/15 07:56:23;;;;;;;31.85;17.58;;;19.00;61.70;;;;;;5051801;28;20040;-75
2022/04/15 07:58:50;;;;;;;24.95;16.63;;;19.00;61.50;;;;;;5051410;28;20033;-74
2022/04/15 08:01:16;;;;;;;25.58;17.70;;;19.00;62.60;;;;;;5051415;28;20497;-74
2022/04/15 08:03:43;;;;;;;24.58;16.75;;;19.00;62.50;;;;;;5051292;28;20035;-73
2022/04/15 08:06:09;;;;;;;25.23;16.85;;;19.00;62.90;;;;;;5051343;28;20029;-73
2022/04/15 08:08:35;;;;;;;26.88;17.08;;;19.10;62.80;;;;;;5051350;28;20075;-72
2022/04/15 08:11:01;;;;;;;24.80;15.23;;;19.20;62.30;;;;;;5051197;28;20061;-73
2022/04/15 08:13:28;;;;;;;31.08;15.55;;;19.20;62.60;;;;;;5051169;28;20384;-72
2022/04/15 08:15:54;;;;;;;29.60;17.25;;;19.30;62.00;;;;;;5109537;28;20035;-71
2022/04/15 08:18:24;;;;;;;25.48;15.10;;;19.40;60.90;;;;;;5114234;28;20031;-71
2022/04/15 08:20:51;;;;;;;19.08;14.85;;;19.50;61.10;;;;;;5113917;28;20035;-71
2022/04/15 08:23:18;;;;;;;33.05;17.90;;;19.50;60.80;;;;;;5112795;28;20111;-71
2022/04/15 08:25:45;;;;;;;29.60;17.27;;;19.60;60.90;;;;;;5095597;28;20020;-71
2022/04/15 08:28:11;;;;;;;24.33;16.83;;;19.70;60.60;;;;;;5095759;28;20027;-71
2022/04/15 08:30:38;;;;;;;25.45;16.52;;;19.80;59.80;;;;;;5095659;28;20024;-71
2022/04/15 08:33:07;;;;;;;25.00;15.40;;;19.90;60.40;;;;;;5113718;28;20026;-71
2022/04/15 08:35:36;;;;;;;25.10;16.65;;;20.00;61.20;;;;;;5114202;28;20028;-71
2022/04/15 08:38:02;;;;;;;33.00;16.38;;;20.20;60.20;;;;;;5095464;28;20044;-72
2022/04/15 08:40:31;;;;;;;36.45;17.55;;;20.30;60.20;;;;;;5095206;28;20143;-72
2022/04/15 08:42:58;;;;;;;28.15;15.77;;;20.40;59.20;;;;;;5095466;28;20355;-71
2022/04/15 08:45:28;;;;;;;34.80;16.35;;;20.50;58.70;;;;;;5095412;28;20027;-72
2022/04/15 08:48:01;;;;;;;23.48;16.50;;;20.60;58.20;;;;;;5113736;28;20031;-72
2022/04/15 08:50:31;;;;;;;27.55;17.38;;;20.70;58.90;;;;;;5095496;28;20031;-72
2022/04/15 08:53:01;;;;;;;26.88;15.05;;;20.80;58.40;;;;;;5095260;28;20032;-72
2022/04/15 08:55:28;;;;;;;25.55;16.27;;;20.80;58.20;;;;;;5095459;28;20027;-74
2022/04/15 08:57:55;;;;;;;37.00;17.02;;;20.80;57.90;;;;;;5095562;28;20080;-73
2022/04/15 09:00:22;;;;;;;25.77;16.98;;;20.80;57.20;;;;;;5095433;28;20459;-72
2022/04/15 09:02:50;;;;;;;26.45;18.52;;;20.70;57.00;;;;;;5113463;28;20370;-73
2022/04/15 09:05:20;;;;;;;29.30;20.85;;;20.60;57.20;;;;;;5113598;28;20102;-72
2022/04/15 09:07:46;;;;;;;23.23;17.52;;;20.60;56.80;;;;;;5113669;28;20020;-72
2022/04/15 09:10:12;;;;;;;24.73;18.45;;;20.40;57.20;;;;;;5113548;28;20122;-72
2022/04/15 09:12:40;;;;;;;23.75;18.65;;;20.40;57.70;;;;;;5095390;28;20413;-72
2022/04/15 09:15:06;;;;;;;24.10;18.45;;;20.40;57.50;;;;;;5113535;28;20031;-72
2022/04/15 09:17:36;;;;;;;30.42;20.05;;;20.30;58.00;;;;;;5113192;28;20032;-71
2022/04/15 09:20:05;;;;;;;25.63;17.35;;;20.30;57.40;;;;;;5113526;28;20024;-72
2022/04/15 09:22:30;;;;;;;28.45;18.90;;;20.20;57.70;;;;;;5112828;28;20035;-72
2022/04/15 09:24:56;;;;;;;29.10;17.77;;;20.20;57.50;;;;;;5095100;28;20400;-72
2022/04/15 09:27:25;;;;;;;33.60;19.58;;;20.20;57.50;;;;;;5112118;28;20491;-72
2022/04/15 09:29:54;;;;;;;27.63;19.38;;;20.10;57.60;;;;;;5093662;28;20031;-71
2022/04/15 09:32:22;;;;;;;30.38;19.33;;;20.10;57.50;;;;;;5092305;28;20020;-72
2022/04/15 09:35:01;;;;;;;27.02;20.20;;;20.10;57.90;;;;;;5112825;28;20024;-72
2022/04/15 09:37:42;;;;;;;24.15;18.98;;;20.10;57.90;;;;;;5108279;28;20020;-71
2022/04/15 09:40:18;;;;;;;24.20;19.23;;;20.10;57.60;;;;;;5082337;28;20070;-71
2022/04/15 09:42:51;;;;;;;25.85;17.80;;;20.10;57.60;;;;;;5097434;28;20366;-71
2022/04/15 09:45:23;;;;;;;34.28;19.83;;;20.10;57.80;;;;;;5133314;28;20094;-72
2022/04/15 09:47:57;;;;;;;25.70;18.83;;;20.10;57.50;;;;;;5133679;28;20023;-71
2022/04/15 09:50:29;;;;;;;23.83;17.58;;;20.20;57.60;;;;;;5133270;28;20075;-71
2022/04/15 09:53:09;;;;;;;23.08;18.15;;;20.20;57.30;;;;;;5133720;27;20023;-71
2022/04/15 09:55:39;;;;;;;18.15;15.65;;;20.20;57.50;;;;;;5117485;27;20466;-71
2022/04/15 09:58:11;;;;;;;22.92;17.92;;;20.20;57.30;;;;;;5136611;27;20049;-70
2022/04/15 10:00:38;;;;;;;25.45;18.83;;;20.20;57.30;;;;;;5118492;27;20084;-71
2022/04/15 10:03:09;;;;;;;20.33;17.27;;;20.20;56.80;;;;;;5135819;27;20027;-71
2022/04/15 10:05:39;;;;;;;18.45;15.13;;;20.30;56.60;;;;;;5116739;27;20122;-71
2022/04/15 10:08:05;;;;;;;26.40;17.77;;;20.30;56.90;;;;;;5117593;27;20059;-71
2022/04/15 10:10:32;;;;;;;21.17;16.10;;;20.30;56.00;;;;;;5117373;27;20105;-71
2022/04/15 10:13:06;;;;;;;18.42;16.42;;;20.40;56.10;;;;;;5136172;27;20088;-71
2022/04/15 10:15:34;;;;;;;19.00;14.45;;;20.40;56.40;;;;;;5114875;28;20039;-71
2022/04/15 10:18:01;;;;;;;35.30;16.80;;;20.40;55.90;;;;;;5094884;28;20107;-71
2022/04/15 10:20:29;;;;;;;28.40;16.63;;;20.50;55.60;;;;;;5132137;27;20111;-71
2022/04/15 10:22:59;;;;;;;36.42;15.82;;;20.50;55.00;;;;;;5136851;27;20108;-74
2022/04/15 10:25:26;;;;;;;19.50;13.55;;;20.50;54.90;;;;;;5136734;27;20027;-72
2022/04/15 10:27:52;;;;;;;30.40;16.52;;;20.60;55.10;;;;;;5118273;27;20133;-72
2022/04/15 10:30:20;;;;;;;22.30;13.98;;;20.60;54.60;;;;;;5136400;27;20461;-73
2022/04/15 10:32:58;;;;;;;24.77;14.70;;;20.70;54.40;;;;;;5137022;27;20107;-72
2022/04/15 10:35:29;;;;;;;20.73;13.52;;;20.70;54.30;;;;;;5136993;27;20575;-71
2022/04/15 10:38:00;;;;;;;17.75;13.85;;;20.80;53.60;;;;;;5117947;27;20111;-73
2022/04/15 10:40:31;;;;;;;17.58;14.23;;;20.80;53.40;;;;;;5136019;27;20176;-72
2022/04/15 10:43:23;;;;;;;27.05;14.00;;;20.90;52.80;;;;;;5136351;27;20102;-77
2022/04/15 10:45:54;;;;;;;16.52;10.13;;;20.90;53.40;;;;;;5118079;27;20023;-76
2022/04/15 10:48:31;;;;;;;18.92;11.63;;;21.00;53.60;;;;;;5118218;27;20156;-77
2022/04/15 10:51:11;;;;;;;13.75;10.25;;;21.10;52.90;;;;;;5118032;27;20363;-75
2022/04/15 10:53:37;;;;;;;14.55;9.63;;;21.20;51.60;;;;;;5136155;27;20481;-73
2022/04/15 10:56:08;;;;;;;10.27;8.70;;;21.40;50.90;;;;;;5136168;27;20109;-74
2022/04/15 11:02:13;;;;;;;11.73;9.75;;;21.70;50.80;;;;;;5120181;27;20436;-74
2022/04/15 11:04:39;;;;;;;11.18;9.98;;;22.00;50.50;;;;;;5015127;28;20132;-73
2022/04/15 11:07:17;;;;;;;15.02;9.90;;;22.10;49.60;;;;;;5037887;28;20116;-74
2022/04/15 11:09:43;;;;;;;8.52;7.43;;;22.10;48.50;;;;;;5016007;28;20037;-74
2022/04/15 11:12:11;;;;;;;10.35;7.97;;;22.20;48.60;;;;;;5032766;28;20033;-74
2022/04/15 11:14:43;;;;;;;13.52;8.32;;;22.30;48.10;;;;;;5015536;28;20091;-74
2022/04/15 11:17:11;;;;;;;14.30;10.77;;;22.40;48.00;;;;;;5031988;28;20079;-73
2022/04/15 11:19:40;;;;;;;14.05;8.88;;;22.50;47.40;;;;;;5015688;28;20497;-73
2022/04/15 11:22:06;;;;;;;9.15;7.75;;;22.70;47.00;;;;;;5015587;28;20028;-74
2022/04/15 11:24:34;;;;;;;15.23;8.27;;;22.80;46.80;;;;;;5032355;28;20061;-74
2022/04/15 11:27:03;;;;;;;13.55;8.88;;;23.00;46.30;;;;;;5015611;28;20033;-74
2022/04/15 11:29:31;;;;;;;8.88;7.30;;;23.20;45.90;;;;;;5032167;28;20035;-75
2022/04/15 11:32:15;;;;;;;16.73;8.18;;;23.30;45.20;;;;;;5032183;28;20049;-74
2022/04/15 11:34:42;;;;;;;8.98;7.28;;;23.40;45.20;;;;;;5032096;28;20379;-74
2022/04/15 11:37:09;;;;;;;15.07;7.10;;;23.40;43.70;;;;;;5031792;28;20088;-74
2022/04/15 11:39:36;;;;;;;10.13;7.13;;;23.40;44.40;;;;;;5039972;27;20108;-74
2022/04/15 11:42:08;;;;;;;12.13;7.20;;;23.40;43.60;;;;;;5115928;27;20023;-74
2022/04/15 11:44:34;;;;;;;12.32;7.05;;;23.40;44.30;;;;;;5100433;27;20019;-74
2022/04/15 11:47:19;;;;;;;11.10;6.63;;;23.50;44.50;;;;;;5116891;27;20538;-74
2022/04/15 11:49:46;;;;;;;11.15;7.43;;;23.60;43.60;;;;;;5116813;27;20019;-74
2022/04/15 11:52:21;;;;;;;7.30;6.47;;;23.60;42.60;;;;;;5116662;27;20185;-74
2022/04/15 11:54:47;;;;;;;10.45;7.63;;;23.70;42.80;;;;;;5116909;27;20114;-74
2022/04/15 11:57:13;;;;;;;8.32;6.43;;;23.70;42.40;;;;;;5116604;27;20117;-74
2022/04/15 11:59:43;;;;;;;9.32;7.18;;;23.80;42.60;;;;;;5116756;27;20036;-74
2022/04/15 12:02:12;;;;;;;7.13;5.05;;;23.80;41.60;;;;;;5116434;27;20023;-74
2022/04/15 12:04:51;;;;;;;8.60;6.05;;;23.80;42.40;;;;;;5116545;27;20111;-74
2022/04/15 12:07:19;;;;;;;12.50;6.72;;;23.80;41.70;;;;;;5134742;27;20030;-74
2022/04/15 12:09:46;;;;;;;12.98;6.13;;;23.80;41.60;;;;;;5116533;27;20055;-74
2022/04/15 12:12:12;;;;;;;9.80;6.00;;;23.80;40.40;;;;;;5116437;27;20019;-74
2022/04/15 12:14:40;;;;;;;8.20;5.93;;;23.80;40.80;;;;;;5116333;27;20434;-74
2022/04/15 12:17:08;;;;;;;11.73;5.20;;;23.80;40.70;;;;;;5115706;27;20023;-74
2022/04/15 12:19:35;;;;;;;7.25;5.32;;;23.90;40.60;;;;;;5116196;27;20094;-74
2022/04/15 12:22:01;;;;;;;5.35;4.40;;;24.00;39.90;;;;;;5116325;27;20114;-75
2022/04/15 12:24:30;;;;;;;6.28;4.90;;;24.10;40.00;;;;;;5116249;27;20114;-74
2022/04/15 12:27:00;;;;;;;5.88;4.47;;;24.20;39.10;;;;;;5116256;27;20060;-74
2022/04/15 12:32:15;;;;;;;6.50;3.50;;;24.40;38.00;;;;;;5134587;27;20022;-74
2022/04/15 12:34:42;;;;;;;7.47;4.82;;;24.50;38.20;;;;;;5134503;27;20027;-74
2022/04/15 12:37:43;;;;;;;6.97;5.00;;;24.40;37.80;;;;;;5115887;27;20541;-74
2022/04/15 12:40:29;;;;;;;5.63;4.40;;;24.30;37.80;;;;;;5134125;27;20047;-74
2022/04/15 12:42:55;;;;;;;6.10;4.95;;;24.20;37.20;;;;;;5116007;27;20110;-74
2022/04/15 12:45:23;;;;;;;4.43;3.88;;;24.10;37.50;;;;;;5115977;27;20462;-74